Wall, SD (57790)

7:43 AM MDT on July 25, 2016 (GMT -0600)
NonFedAWOS | | Change Station

Elev 2812 ft 44.00 °N, 102.25 °W | Updated 28 minutes ago

Clear
Clear
73 °F
Feels Like 76 °F
N
9
Wind Variable Wind from South
Gusts 0.0 mph

Today
High -- | Low -- °F
--% Chance of Precip.
Yesterday
High -- | Low -- °F
Precip. -- in
Pressure 30.01 in
Visibility 10.0 miles
Clouds Clear
Heat Index 76 °F
Dew Point 59 °F
Humidity 61%
Rainfall in
Snow Depth Not available.
5:30 AM 8:19 PM
Waning Gibbous, 66% visible
METAR KPHP 251255Z AUTO 13005KT 10SM CLR 19/14 A3007 RMK AO2 SLP163 T01940144
Pressure 30.01 in
Visibility 10.0 miles
Clouds Clear
Heat Index 76 °F
Dew Point 59 °F
Humidity 61%
Rainfall in
Snow Depth Not available.
5:30 AM 8:19 PM
Waning Gibbous, 66% visible
METAR KPHP 251255Z AUTO 13005KT 10SM CLR 19/14 A3007 RMK AO2 SLP163 T01940144

10-Day Weather Forecast

Almanac

Astronomy

Jul. 25, 2016 Rise Set
Actual Time
Civil Twilight
Nautical Twilight
Astronomical Twilight
Moon
Length of Visible Light
Length of Day
Tomorrow will be .
, % of the Moon is Illuminated

Today's Extremes

State Highs State Lows

Community

WunderPhotos

Upload Photos

1,927,300 photos uploaded!

WunderBlog® & News

Nearby

Air Quality

  Air Quality AQ Index Pollutant
Not available.

Snow Depth

Station Depth Elevation

Earthquake Activity

City Distance Mag. Time & Date
Minimum magnitude displayed is 2.5.

Coastal Water Temperatures

Place Temperature

Stations

Nearby Weather Stations

Station Location Temp. Windchill Dew Point Humidity Wind Precip. Elev Updated Type
                   

Watches & Warnings

There are currently no watches in effect.